createdAt,value
2023-05-09T00:00:48.413Z,25.26
2023-05-09T00:01:48.714Z,25.22
2023-05-09T00:02:48.489Z,25.24
2023-05-09T00:03:48.509Z,25.22
2023-05-09T00:04:48.570Z,25.24
2023-05-09T00:05:48.566Z,25.12
2023-05-09T00:06:48.594Z,25.29
2023-05-09T00:07:48.622Z,25.22
2023-05-09T00:09:48.798Z,25.23
2023-05-09T00:10:48.733Z,25.22
2023-05-09T00:11:48.750Z,25.24
2023-05-09T00:12:48.832Z,25.17
2023-05-09T00:13:48.810Z,25.20
2023-05-09T00:14:48.834Z,25.19
2023-05-09T00:15:49.163Z,25.23
2023-05-09T00:16:48.978Z,25.20
2023-05-09T00:17:48.954Z,25.16
2023-05-09T00:18:48.961Z,25.26
2023-05-09T00:19:48.988Z,25.12
2023-05-09T00:20:49.328Z,25.23
2023-05-09T00:21:49.051Z,25.09
2023-05-09T00:22:49.385Z,25.23
2023-05-09T00:23:49.109Z,25.11
2023-05-09T00:24:49.131Z,25.14
2023-05-09T00:25:49.305Z,25.16
2023-05-09T00:26:49.193Z,25.20
2023-05-09T00:27:49.221Z,25.19
2023-05-09T00:28:49.252Z,25.14
2023-05-09T00:30:49.320Z,25.09
2023-05-09T00:31:49.366Z,25.12
2023-05-09T00:32:49.463Z,25.11
2023-05-09T00:33:49.407Z,25.16
2023-05-09T00:34:49.433Z,25.19
2023-05-09T00:35:49.471Z,25.19
2023-05-09T00:36:49.808Z,25.16
2023-05-09T00:37:49.530Z,25.09
2023-05-09T00:38:49.564Z,25.09
2023-05-09T00:39:49.584Z,25.12
2023-05-09T00:40:49.643Z,25.14
2023-05-09T00:41:49.764Z,25.16
2023-05-09T00:42:49.924Z,25.14
2023-05-09T00:43:49.712Z,25.14
2023-05-09T00:44:49.745Z,25.19
2023-05-09T00:46:49.798Z,25.19
2023-05-09T00:47:49.849Z,25.16
2023-05-09T00:48:50.164Z,25.14
2023-05-09T00:49:50.037Z,25.17
2023-05-09T00:50:49.921Z,25.17
2023-05-09T00:51:50.035Z,25.11
2023-05-09T00:52:49.996Z,25.12
2023-05-09T00:53:50.136Z,25.09
2023-05-09T00:54:50.440Z,25.12
2023-05-09T00:55:50.090Z,25.09
2023-05-09T00:56:50.175Z,25.12
2023-05-09T00:57:50.272Z,25.12
2023-05-09T00:58:50.176Z,25.12
2023-05-09T00:59:50.229Z,25.09
2023-05-09T01:00:50.228Z,25.14
2023-05-09T01:01:50.673Z,25.04
2023-05-09T01:02:50.374Z,25.07
2023-05-09T01:03:50.382Z,25.09
2023-05-09T01:04:50.362Z,24.99
2023-05-09T01:05:50.376Z,25.09
2023-05-09T01:06:50.401Z,25.09
2023-05-09T01:07:50.446Z,25.11
2023-05-09T01:08:50.708Z,24.98
2023-05-09T01:09:50.498Z,25.01
2023-05-09T01:10:50.518Z,25.09
2023-05-09T01:11:50.559Z,25.09
2023-05-09T01:12:50.658Z,24.99
2023-05-09T01:13:50.736Z,25.08
2023-05-09T01:14:50.775Z,25.04
2023-05-09T01:15:51.076Z,25.05
2023-05-09T01:16:50.884Z,24.98
2023-05-09T01:17:50.785Z,24.99
2023-05-09T01:18:50.762Z,25.02
2023-05-09T01:20:50.833Z,25.07
2023-05-09T01:21:50.852Z,25.08
2023-05-09T01:22:51.208Z,25.07
2023-05-09T01:23:50.961Z,25.01
2023-05-09T01:24:50.968Z,25.09
2023-05-09T01:25:51.048Z,25.05
2023-05-09T01:26:51.037Z,24.98
2023-05-09T01:27:51.060Z,24.99
2023-05-09T01:28:51.064Z,25.02
2023-05-09T01:29:51.571Z,25.04
2023-05-09T01:30:51.204Z,25.08
2023-05-09T01:31:51.304Z,25.01
2023-05-09T01:32:51.284Z,25.02
2023-05-09T01:33:51.235Z,25.07
2023-05-09T01:34:51.300Z,25.01
2023-05-09T01:35:51.287Z,25.02
2023-05-09T01:36:51.717Z,25.08
2023-05-09T01:37:51.410Z,24.98
2023-05-09T01:38:51.605Z,24.97
2023-05-09T01:39:51.413Z,25.02
2023-05-09T01:40:51.517Z,25.04
2023-05-09T01:42:51.618Z,25.01
2023-05-09T01:43:51.891Z,25.04
2023-05-09T01:44:51.652Z,25.04
2023-05-09T01:45:51.723Z,24.98
2023-05-09T01:46:51.722Z,25.01
2023-05-09T01:47:51.764Z,24.97
2023-05-09T01:48:51.664Z,25.01
2023-05-09T01:49:51.696Z,24.99
2023-05-09T01:50:52.032Z,25.01
2023-05-09T01:51:51.768Z,25.01
2023-05-09T01:52:51.791Z,25.01
2023-05-09T01:53:51.821Z,25.01
2023-05-09T01:54:51.848Z,25.01
2023-05-09T01:55:51.878Z,24.99
2023-05-09T01:56:51.908Z,24.93
2023-05-09T01:57:52.244Z,24.98
2023-05-09T01:58:51.968Z,24.90
2023-05-09T01:59:52.030Z,24.99
2023-05-09T02:00:52.112Z,24.99
2023-05-09T02:01:52.210Z,24.97
2023-05-09T02:02:52.176Z,24.97
2023-05-09T02:03:52.132Z,24.94
2023-05-09T02:04:52.542Z,24.92
2023-05-09T02:05:52.216Z,24.99
2023-05-09T02:07:52.259Z,24.94
2023-05-09T02:08:52.301Z,24.94
2023-05-09T02:09:52.311Z,24.94
2023-05-09T02:10:52.334Z,24.97
2023-05-09T02:11:52.821Z,24.90
2023-05-09T02:12:52.429Z,25.01
2023-05-09T02:13:52.441Z,24.89
2023-05-09T02:14:52.469Z,24.92
2023-05-09T02:15:52.489Z,24.99
2023-05-09T02:16:52.538Z,24.99
2023-05-09T02:17:52.734Z,24.98
2023-05-09T02:18:52.880Z,24.89
2023-05-09T02:19:52.628Z,24.94
2023-05-09T02:20:52.666Z,24.92
2023-05-09T02:21:52.683Z,24.97
2023-05-09T02:22:52.701Z,24.87
2023-05-09T02:23:52.727Z,24.87
2023-05-09T02:24:52.781Z,24.90
2023-05-09T02:25:53.104Z,24.93
2023-05-09T02:26:52.832Z,24.92
2023-05-09T02:27:52.859Z,24.93
2023-05-09T02:28:52.877Z,24.89
2023-05-09T02:29:52.893Z,24.90
2023-05-09T02:30:52.936Z,24.92
2023-05-09T02:31:53.034Z,24.87
2023-05-09T02:32:53.430Z,24.98
2023-05-09T02:33:53.183Z,24.89
2023-05-09T02:35:53.084Z,24.84
2023-05-09T02:36:53.121Z,24.86
2023-05-09T02:37:53.166Z,24.87
2023-05-09T02:40:53.477Z,24.90
2023-05-09T02:41:53.255Z,24.94
2023-05-09T02:42:53.289Z,24.90
2023-05-09T02:43:53.364Z,24.89
2023-05-09T02:44:53.396Z,24.90
2023-05-09T02:45:53.424Z,24.89
2023-05-09T02:46:53.427Z,24.89
2023-05-09T02:47:53.801Z,24.89
2023-05-09T02:48:53.462Z,24.90
2023-05-09T02:49:53.614Z,24.89
2023-05-09T02:50:53.529Z,24.87
2023-05-09T02:51:53.558Z,24.87
2023-05-09T02:52:53.588Z,24.84
2023-05-09T02:53:53.620Z,24.92
2023-05-09T02:54:53.936Z,24.93
2023-05-09T02:55:53.681Z,24.93
2023-05-09T02:56:53.809Z,24.82
2023-05-09T02:58:53.766Z,24.90
2023-05-09T02:59:53.795Z,24.82
2023-05-09T03:00:54.174Z,24.90
2023-05-09T03:01:53.870Z,24.79
2023-05-09T03:02:53.969Z,24.77
2023-05-09T03:03:54.073Z,24.89
2023-05-09T03:04:53.940Z,24.89
2023-05-09T03:05:54.097Z,24.82
2023-05-09T03:06:54.330Z,24.87
2023-05-09T03:07:54.039Z,24.92
2023-05-09T03:08:54.077Z,24.87
2023-05-09T03:09:54.092Z,24.89
2023-05-09T03:10:54.123Z,24.84
2023-05-09T03:11:54.153Z,24.75
2023-05-09T03:12:54.542Z,24.84
2023-05-09T03:13:54.212Z,24.92
2023-05-09T03:14:54.253Z,24.86
2023-05-09T03:15:54.346Z,24.84
2023-05-09T03:16:54.310Z,24.89
2023-05-09T03:17:54.358Z,24.82
2023-05-09T03:18:54.367Z,24.83
2023-05-09T03:19:54.649Z,24.87
2023-05-09T03:20:54.428Z,24.83
2023-05-09T03:21:54.575Z,24.79
2023-05-09T03:22:54.506Z,24.80
2023-05-09T03:23:54.514Z,24.75
2023-05-09T03:24:54.554Z,24.80
2023-05-09T03:25:54.570Z,24.80
2023-05-09T03:26:54.910Z,24.75
2023-05-09T03:27:54.645Z,24.75
2023-05-09T03:28:54.684Z,24.79
2023-05-09T03:29:54.749Z,24.79
2023-05-09T03:30:54.767Z,24.74
2023-05-09T03:31:54.922Z,24.77
2023-05-09T03:32:54.829Z,24.75
2023-05-09T03:33:55.117Z,24.80
2023-05-09T03:34:54.952Z,24.79
2023-05-09T03:35:54.884Z,24.84
2023-05-09T03:36:54.920Z,24.79
2023-05-09T03:37:55.054Z,24.83
2023-05-09T03:38:54.989Z,24.70
2023-05-09T03:39:55.016Z,24.79
2023-05-09T03:40:55.335Z,24.77
2023-05-09T03:41:55.062Z,24.82
2023-05-09T03:42:55.087Z,24.86
2023-05-09T03:43:55.157Z,24.82
2023-05-09T03:44:55.168Z,24.77
2023-05-09T03:45:55.235Z,24.80
2023-05-09T03:46:55.304Z,24.89
2023-05-09T03:47:55.596Z,24.80
2023-05-09T03:48:55.373Z,24.79
2023-05-09T03:49:55.317Z,24.82
2023-05-09T03:50:55.339Z,24.80
2023-05-09T03:51:55.354Z,24.79
2023-05-09T03:52:55.468Z,24.77
2023-05-09T03:53:55.546Z,24.79
2023-05-09T03:54:55.755Z,24.74
2023-05-09T03:55:55.487Z,24.79
2023-05-09T03:56:55.516Z,24.77
2023-05-09T03:57:55.668Z,24.80
2023-05-09T03:58:55.608Z,24.74
2023-05-09T03:59:55.622Z,24.77
2023-05-09T04:00:55.643Z,24.86
2023-05-09T04:02:56.088Z,24.77
2023-05-09T04:03:55.745Z,24.80
2023-05-09T04:04:55.833Z,24.71
2023-05-09T04:05:55.827Z,24.80
2023-05-09T04:06:55.967Z,24.74
2023-05-09T04:07:55.917Z,24.75
2023-05-09T04:09:56.105Z,24.77
2023-05-09T04:10:55.941Z,24.70
2023-05-09T04:11:56.039Z,24.77
2023-05-09T04:12:56.084Z,24.74
2023-05-09T04:13:56.107Z,24.79
2023-05-09T04:14:56.112Z,24.79
2023-05-09T04:15:56.323Z,24.77
2023-05-09T04:16:56.483Z,24.79
2023-05-09T04:17:56.210Z,24.74
2023-05-09T04:18:56.165Z,24.77
2023-05-09T04:19:56.210Z,24.79
2023-05-09T04:20:56.223Z,24.75
2023-05-09T04:21:56.258Z,24.74
2023-05-09T04:22:56.497Z,24.80
2023-05-09T04:23:56.617Z,24.75
2023-05-09T04:24:56.410Z,24.79
2023-05-09T04:25:56.490Z,24.68
2023-05-09T04:26:56.400Z,24.74
2023-05-09T04:27:56.461Z,24.77
2023-05-09T04:28:56.475Z,24.83
2023-05-09T04:29:56.496Z,24.82
2023-05-09T04:30:56.879Z,24.71
2023-05-09T04:31:56.668Z,24.79
2023-05-09T04:32:56.598Z,24.79
2023-05-09T04:33:56.612Z,24.77
2023-05-09T04:34:56.639Z,24.71
2023-05-09T04:35:56.671Z,24.74
2023-05-09T04:36:56.701Z,24.79
2023-05-09T04:37:57.035Z,24.79
2023-05-09T04:38:56.759Z,24.79
2023-05-09T04:39:56.801Z,24.80
2023-05-09T04:40:56.838Z,24.77
2023-05-09T04:41:56.975Z,24.77
2023-05-09T04:42:56.889Z,24.74
2023-05-09T04:43:56.910Z,24.74
2023-05-09T04:44:57.257Z,24.75
2023-05-09T04:45:56.992Z,24.75
2023-05-09T04:46:57.003Z,24.68
2023-05-09T04:47:57.077Z,24.79
2023-05-09T04:48:57.066Z,24.75
2023-05-09T04:49:57.107Z,24.80
2023-05-09T04:50:57.115Z,24.82
2023-05-09T04:51:57.450Z,24.70
2023-05-09T04:52:57.182Z,24.86
2023-05-09T04:53:57.235Z,24.79
2023-05-09T04:54:57.240Z,24.79
2023-05-09T04:55:57.272Z,24.82
2023-05-09T04:57:10.000Z,24.86
2023-05-09T04:57:57.456Z,24.70
2023-05-09T04:58:57.618Z,24.83
2023-05-09T04:59:57.399Z,24.77
2023-05-09T05:00:57.419Z,24.82
2023-05-09T05:01:57.501Z,24.75
2023-05-09T05:02:57.549Z,24.82
2023-05-09T05:03:57.518Z,24.90
2023-05-09T05:05:10.247Z,24.86
2023-05-09T05:05:57.569Z,24.84
2023-05-09T05:06:57.599Z,24.80
2023-05-09T05:07:57.632Z,24.82
2023-05-09T05:08:57.755Z,24.86
2023-05-09T05:09:57.696Z,24.87
2023-05-09T05:10:57.730Z,24.83
2023-05-09T05:12:02.057Z,24.86
2023-05-09T05:12:57.835Z,24.84
2023-05-09T05:13:57.930Z,24.87
2023-05-09T05:15:57.869Z,24.84
2023-05-09T05:17:58.253Z,24.87
2023-05-09T05:18:57.954Z,24.92
2023-05-09T05:19:57.986Z,24.93
2023-05-09T05:20:58.016Z,24.87
2023-05-09T05:22:58.088Z,24.90
2023-05-09T05:23:58.403Z,24.83
2023-05-09T05:24:58.246Z,24.90
2023-05-09T05:25:58.169Z,24.92
2023-05-09T05:26:58.196Z,24.93
2023-05-09T05:27:58.228Z,24.90
2023-05-09T05:28:58.268Z,24.94
2023-05-09T05:29:58.306Z,24.92
2023-05-09T05:30:58.615Z,24.98
2023-05-09T05:31:58.395Z,24.93
2023-05-09T05:32:58.408Z,24.94
2023-05-09T05:33:58.401Z,24.97
2023-05-09T05:34:58.434Z,24.99
2023-05-09T05:35:58.461Z,24.94
2023-05-09T05:36:58.492Z,25.01
2023-05-09T05:37:58.827Z,25.01
2023-05-09T05:39:58.588Z,25.07
2023-05-09T05:40:58.618Z,25.01
2023-05-09T05:41:58.652Z,25.07
2023-05-09T05:42:58.695Z,25.04
2023-05-09T05:43:58.705Z,25.08
2023-05-09T05:44:59.041Z,25.07
2023-05-09T05:45:58.916Z,25.05
2023-05-09T05:46:58.791Z,25.02
2023-05-09T05:48:58.858Z,25.07
2023-05-09T05:49:58.873Z,25.12
2023-05-09T05:50:58.917Z,25.09
2023-05-09T05:51:59.239Z,25.16
2023-05-09T05:52:58.970Z,25.14
2023-05-09T05:53:58.998Z,25.20
2023-05-09T05:54:59.032Z,25.14
2023-05-09T05:55:59.064Z,25.12
2023-05-09T05:56:59.094Z,25.11
2023-05-09T05:57:59.126Z,25.16
2023-05-09T05:58:59.451Z,25.23
2023-05-09T05:59:59.187Z,25.23
2023-05-09T06:00:59.231Z,25.29
2023-05-09T06:01:59.413Z,25.26
2023-05-09T06:02:59.417Z,25.24
2023-05-09T06:03:59.360Z,25.19
2023-05-09T06:04:59.335Z,25.30
2023-05-09T06:05:59.355Z,25.20
2023-05-09T06:06:59.390Z,25.27
2023-05-09T06:07:59.431Z,25.24
2023-05-09T06:08:59.447Z,25.24
2023-05-09T06:09:59.492Z,25.24
2023-05-09T06:10:59.506Z,25.20
2023-05-09T06:11:59.548Z,25.24
2023-05-09T06:12:59.604Z,25.30
2023-05-09T06:13:59.610Z,25.34
2023-05-09T06:14:59.680Z,25.35
2023-05-09T06:16:07.707Z,25.36
2023-05-09T06:16:59.743Z,25.34
2023-05-09T06:18:00.092Z,25.35
2023-05-09T06:18:59.752Z,25.34
2023-05-09T06:19:59.777Z,25.41
2023-05-09T06:20:59.810Z,25.38
2023-05-09T06:21:59.840Z,25.44
2023-05-09T06:22:59.867Z,25.38
2023-05-09T06:24:07.654Z,25.42
2023-05-09T06:25:00.042Z,25.35
2023-05-09T06:25:59.976Z,25.41
2023-05-09T06:26:59.999Z,25.41
2023-05-09T06:28:00.040Z,25.41
2023-05-09T06:30:04.169Z,25.54
2023-05-09T06:31:00.196Z,25.51
2023-05-09T06:32:00.205Z,25.57
2023-05-09T06:33:00.349Z,25.48
2023-05-09T06:34:00.341Z,25.48
2023-05-09T06:35:00.267Z,25.49
2023-05-09T06:37:00.308Z,25.54
2023-05-09T06:38:00.324Z,25.54
2023-05-09T06:39:00.389Z,25.59
2023-05-09T06:41:00.421Z,25.64
2023-05-09T06:42:00.750Z,25.66
2023-05-09T06:43:00.475Z,25.61
2023-05-09T06:44:00.509Z,25.71
2023-05-09T06:45:00.591Z,25.69
2023-05-09T06:46:00.607Z,25.69
2023-05-09T06:47:00.610Z,25.71
2023-05-09T06:48:00.649Z,25.74
2023-05-09T06:49:00.910Z,25.67
2023-05-09T06:51:00.857Z,25.76
2023-05-09T06:52:00.795Z,25.82
2023-05-09T06:53:00.785Z,25.76
2023-05-09T06:54:00.818Z,25.81
2023-05-09T06:55:00.848Z,25.75
2023-05-09T06:56:01.192Z,25.78
2023-05-09T06:57:00.913Z,25.78
2023-05-09T06:58:00.939Z,25.86
2023-05-09T06:59:00.969Z,25.81
2023-05-09T07:00:01.001Z,25.89
2023-05-09T07:01:01.032Z,25.93
2023-05-09T07:02:01.160Z,25.81
2023-05-09T07:03:01.480Z,25.93
2023-05-09T07:04:01.134Z,25.89
2023-05-09T07:05:01.274Z,25.96
2023-05-09T07:06:01.179Z,25.94
2023-05-09T07:07:01.331Z,25.89
2023-05-09T07:08:01.253Z,25.97
2023-05-09T07:09:01.290Z,26.06
2023-05-09T07:10:10.462Z,26.06
2023-05-09T07:11:01.344Z,26.06
2023-05-09T07:12:01.370Z,25.97
2023-05-09T07:13:01.434Z,25.97
2023-05-09T07:14:01.432Z,26.08
2023-05-09T07:15:01.461Z,26.12
2023-05-09T07:16:01.533Z,26.09
2023-05-09T07:17:18.203Z,26.13
2023-05-09T07:18:01.590Z,26.17
2023-05-09T07:19:01.632Z,26.20
2023-05-09T07:20:01.674Z,26.19
2023-05-09T07:21:01.674Z,26.20
2023-05-09T07:23:02.179Z,26.23
2023-05-09T07:24:01.762Z,26.21
2023-05-09T07:25:01.773Z,26.20
2023-05-09T07:26:01.821Z,26.29
2023-05-09T07:27:01.835Z,26.31
2023-05-09T07:28:01.897Z,26.24
2023-05-09T07:29:02.321Z,26.32
2023-05-09T07:30:01.949Z,26.32
2023-05-09T07:31:01.994Z,26.28
2023-05-09T07:33:02.147Z,26.29
2023-05-09T07:34:02.059Z,26.32
2023-05-09T07:35:02.393Z,26.29
2023-05-09T07:36:02.112Z,26.31
2023-05-09T07:37:02.145Z,26.20
2023-05-09T07:38:02.189Z,26.28
2023-05-09T07:39:02.322Z,26.27
2023-05-09T07:40:02.257Z,26.31
2023-05-09T07:41:02.584Z,26.32
2023-05-09T07:42:02.300Z,26.34
2023-05-09T07:43:02.347Z,26.31
2023-05-09T07:44:02.357Z,26.34
2023-05-09T07:45:02.398Z,26.35
2023-05-09T07:46:02.481Z,26.34
2023-05-09T07:47:02.449Z,26.28
2023-05-09T07:48:02.849Z,26.35
2023-05-09T07:49:02.514Z,26.31
2023-05-09T07:50:02.568Z,26.35
2023-05-09T07:51:02.588Z,26.31
2023-05-09T07:52:02.601Z,26.38
2023-05-09T07:53:02.637Z,26.35
2023-05-09T07:54:02.665Z,26.34
2023-05-09T07:55:03.069Z,26.39
2023-05-09T07:56:02.748Z,26.44
2023-05-09T07:57:02.766Z,26.35
2023-05-09T07:58:02.889Z,26.29
2023-05-09T07:59:02.826Z,26.36
2023-05-09T08:00:02.864Z,26.47
2023-05-09T08:01:02.893Z,26.34
2023-05-09T08:02:03.235Z,26.31
2023-05-09T08:03:03.185Z,26.29
2023-05-09T08:04:03.059Z,26.36
2023-05-09T08:05:03.017Z,26.34
2023-05-09T08:06:03.042Z,26.36
2023-05-09T08:07:03.080Z,26.36
2023-05-09T08:08:03.128Z,26.42
2023-05-09T08:09:03.385Z,26.31
2023-05-09T08:10:03.183Z,26.44
2023-05-09T08:11:03.368Z,26.34
2023-05-09T08:12:03.228Z,26.39
2023-05-09T08:13:03.306Z,26.42
2023-05-09T08:14:03.415Z,26.41
2023-05-09T08:15:03.423Z,26.44
2023-05-09T08:16:03.642Z,26.46
2023-05-09T08:17:03.401Z,26.36
2023-05-09T08:18:03.456Z,26.41
2023-05-09T08:19:03.452Z,26.42
2023-05-09T08:20:03.517Z,26.42
2023-05-09T08:21:03.578Z,26.47
2023-05-09T08:22:03.557Z,26.46
2023-05-09T08:23:03.883Z,26.42
2023-05-09T08:24:03.601Z,26.50
2023-05-09T08:25:03.639Z,26.44
2023-05-09T08:26:03.688Z,26.47
2023-05-09T08:27:03.957Z,26.47
2023-05-09T08:28:03.739Z,26.47
2023-05-09T08:29:03.765Z,26.44
2023-05-09T08:30:04.095Z,26.47
2023-05-09T08:31:03.915Z,26.54
2023-05-09T08:33:04.006Z,26.54
2023-05-09T08:34:03.942Z,26.50
2023-05-09T08:35:03.990Z,26.50
2023-05-09T08:36:03.991Z,26.49
2023-05-09T08:37:04.315Z,26.59
2023-05-09T08:38:04.049Z,26.56
2023-05-09T08:39:04.079Z,26.54
2023-05-09T08:40:04.112Z,26.57
2023-05-09T08:41:04.235Z,26.60
2023-05-09T08:42:04.172Z,26.56
2023-05-09T08:43:04.334Z,26.57
2023-05-09T08:44:04.539Z,26.53
2023-05-09T08:45:04.263Z,26.54
2023-05-09T08:46:04.365Z,26.60
2023-05-09T08:47:04.345Z,26.46
2023-05-09T08:48:04.392Z,26.54
2023-05-09T08:49:04.398Z,26.60
2023-05-09T08:50:04.414Z,26.60
2023-05-09T08:51:04.769Z,26.60
2023-05-09T08:52:04.487Z,26.65
2023-05-09T08:53:04.516Z,26.64
2023-05-09T08:54:04.553Z,26.59
2023-05-09T08:55:04.606Z,26.64
2023-05-09T08:56:04.605Z,26.57
2023-05-09T08:57:04.670Z,26.72
2023-05-09T08:59:05.077Z,26.73
2023-05-09T09:00:04.739Z,26.71
2023-05-09T09:01:05.054Z,26.71
2023-05-09T09:02:05.117Z,26.73
2023-05-09T09:03:04.863Z,26.69
2023-05-09T09:04:04.865Z,26.71
2023-05-09T09:05:05.194Z,26.75
2023-05-09T09:06:05.222Z,26.75
2023-05-09T09:07:04.970Z,26.78
2023-05-09T09:08:04.985Z,26.81
2023-05-09T09:09:05.025Z,26.84
2023-05-09T09:10:05.055Z,26.88
2023-05-09T09:12:05.112Z,26.81
2023-05-09T09:14:05.182Z,26.88
2023-05-09T09:15:05.362Z,26.83
2023-05-09T09:17:05.279Z,26.88
2023-05-09T09:18:06.031Z,26.88
2023-05-09T09:19:05.326Z,26.90
2023-05-09T09:22:05.483Z,26.98
2023-05-09T09:23:05.531Z,27.09
2023-05-09T09:24:05.493Z,26.97
2023-05-09T09:25:05.540Z,26.94
2023-05-09T09:26:05.594Z,26.96
2023-05-09T09:27:05.688Z,26.98
2023-05-09T09:28:05.923Z,27.05
2023-05-09T09:29:05.650Z,27.06
2023-05-09T09:31:05.836Z,27.01
2023-05-09T09:32:05.780Z,27.02
2023-05-09T09:33:05.815Z,27.08
2023-05-09T09:34:05.809Z,27.13
2023-05-09T09:35:06.139Z,27.18
2023-05-09T09:36:05.874Z,27.12
2023-05-09T09:37:05.902Z,27.20
2023-05-09T09:38:05.942Z,27.16
2023-05-09T09:39:05.970Z,27.25
2023-05-09T09:40:06.017Z,27.16
2023-05-09T09:41:06.030Z,27.16
2023-05-09T09:42:06.364Z,27.18
2023-05-09T09:43:06.112Z,27.20
2023-05-09T09:44:06.130Z,27.21
2023-05-09T09:45:06.157Z,27.18
2023-05-09T09:46:06.225Z,27.27
2023-05-09T09:47:06.334Z,27.21
2023-05-09T09:48:06.630Z,27.30
2023-05-09T09:49:06.284Z,27.28
2023-05-09T09:50:06.327Z,27.23
2023-05-09T09:51:06.349Z,27.24
2023-05-09T09:52:06.384Z,27.21
2023-05-09T09:53:06.457Z,27.28
2023-05-09T09:54:06.738Z,27.30
2023-05-09T09:55:06.527Z,27.27
2023-05-09T09:56:06.508Z,27.33
2023-05-09T09:57:06.636Z,27.30
2023-05-09T09:58:06.576Z,27.34
2023-05-09T09:59:06.610Z,27.33
2023-05-09T10:00:06.633Z,27.40
2023-05-09T10:01:06.695Z,27.34
2023-05-09T10:02:07.998Z,27.33
2023-05-09T10:03:06.900Z,27.42
2023-05-09T10:04:06.800Z,27.42
2023-05-09T10:06:07.130Z,27.42
2023-05-09T10:07:06.864Z,27.43
2023-05-09T10:08:06.893Z,27.35
2023-05-09T10:09:06.926Z,27.46
2023-05-09T10:10:06.979Z,27.48
2023-05-09T10:12:07.028Z,27.42
2023-05-09T10:13:07.114Z,27.48
2023-05-09T10:14:07.086Z,27.49
2023-05-09T10:15:07.123Z,27.49
2023-05-09T10:16:07.259Z,27.55
2023-05-09T10:17:07.211Z,27.55
2023-05-09T10:18:07.343Z,27.53
2023-05-09T10:19:07.659Z,27.52
2023-05-09T10:20:07.285Z,27.62
2023-05-09T10:21:07.309Z,27.62
2023-05-09T10:22:07.339Z,27.58
2023-05-09T10:23:07.380Z,27.58
2023-05-09T10:24:07.406Z,27.61
2023-05-09T10:25:07.441Z,27.59
2023-05-09T10:26:07.771Z,27.62
2023-05-09T10:27:07.505Z,27.65
2023-05-09T10:28:07.533Z,27.61
2023-05-09T10:29:07.567Z,27.63
2023-05-09T10:30:07.597Z,27.69
2023-05-09T10:31:08.949Z,27.69
2023-05-09T10:32:07.673Z,27.71
2023-05-09T10:33:08.047Z,27.66
2023-05-09T10:34:07.736Z,27.71
2023-05-09T10:35:07.922Z,27.74
2023-05-09T10:36:07.800Z,27.72
2023-05-09T10:37:07.825Z,27.71
2023-05-09T10:38:07.877Z,27.69
2023-05-09T10:39:07.913Z,27.68
2023-05-09T10:40:07.926Z,27.74
2023-05-09T10:42:07.981Z,27.77
2023-05-09T10:44:08.051Z,27.80
2023-05-09T10:45:08.277Z,27.80
2023-05-09T10:46:08.586Z,27.74
2023-05-09T10:47:08.167Z,27.77
2023-05-09T10:48:08.293Z,27.86
2023-05-09T10:49:08.207Z,27.83
2023-05-09T10:50:08.244Z,27.87
2023-05-09T10:51:08.398Z,27.90
2023-05-09T10:52:08.625Z,27.90
2023-05-09T10:53:08.358Z,27.83
2023-05-09T10:54:08.378Z,27.83
2023-05-09T10:55:08.419Z,27.83
2023-05-09T10:58:08.502Z,27.84
2023-05-09T10:59:08.838Z,27.84
2023-05-09T11:00:08.564Z,27.84
2023-05-09T11:02:08.644Z,27.90
2023-05-09T11:03:08.855Z,27.86
2023-05-09T11:04:08.698Z,27.87
2023-05-09T11:05:09.344Z,27.80
2023-05-09T11:06:08.764Z,27.87
2023-05-09T11:07:08.930Z,27.86
2023-05-09T11:08:08.837Z,27.81
2023-05-09T11:09:08.868Z,27.88
2023-05-09T11:10:08.921Z,27.83
2023-05-09T11:11:08.926Z,27.90
2023-05-09T11:12:09.257Z,27.88
2023-05-09T11:13:09.041Z,27.87
2023-05-09T11:14:09.030Z,27.87
2023-05-09T11:15:09.057Z,27.96
2023-05-09T11:16:09.742Z,27.93
2023-05-09T11:17:09.131Z,27.88
2023-05-09T11:18:09.197Z,27.84
2023-05-09T11:19:09.486Z,27.86
2023-05-09T11:20:09.221Z,27.88
2023-05-09T11:21:09.255Z,27.90
2023-05-09T11:22:09.288Z,27.95
2023-05-09T11:23:09.441Z,27.84
2023-05-09T11:24:09.358Z,27.90
2023-05-09T11:25:09.393Z,27.88
2023-05-09T11:26:09.426Z,27.93
2023-05-09T11:27:09.453Z,27.84
2023-05-09T11:28:09.519Z,27.91
2023-05-09T11:29:09.543Z,27.87
2023-05-09T11:30:09.582Z,27.91
2023-05-09T11:31:09.577Z,27.96
2023-05-09T11:32:10.137Z,27.96
2023-05-09T11:33:09.675Z,27.95
2023-05-09T11:34:09.845Z,27.98
2023-05-09T11:35:09.870Z,27.98
2023-05-09T11:36:09.746Z,27.99
2023-05-09T11:37:09.776Z,28.03
2023-05-09T11:38:09.859Z,28.06
2023-05-09T11:39:10.263Z,28.06
2023-05-09T11:40:09.883Z,28.08
2023-05-09T11:41:09.915Z,28.05
2023-05-09T11:42:09.942Z,28.02
2023-05-09T11:43:10.172Z,27.99
2023-05-09T11:44:10.007Z,28.08
2023-05-09T11:45:10.095Z,28.03
2023-05-09T11:46:10.424Z,28.11
2023-05-09T11:47:10.201Z,28.05
2023-05-09T11:48:10.218Z,28.09
2023-05-09T11:49:12.006Z,28.09
2023-05-09T11:50:10.224Z,28.09
2023-05-09T11:51:10.239Z,28.09
2023-05-09T11:52:10.482Z,28.18
2023-05-09T11:53:10.597Z,28.21
2023-05-09T11:54:10.330Z,28.14
2023-05-09T11:55:12.492Z,28.13
2023-05-09T11:56:10.401Z,28.18
2023-05-09T11:57:10.431Z,28.21
2023-05-09T11:58:10.555Z,28.13
2023-05-09T11:59:10.511Z,28.11
2023-05-09T12:00:10.801Z,28.13
2023-05-09T12:01:11.963Z,28.13
2023-05-09T12:02:10.603Z,28.09
2023-05-09T12:03:10.758Z,28.17
2023-05-09T12:04:10.676Z,28.14
2023-05-09T12:05:10.718Z,28.13
2023-05-09T12:06:11.017Z,28.18
2023-05-09T12:07:10.755Z,28.18
2023-05-09T12:08:10.794Z,28.15
2023-05-09T12:09:10.834Z,28.14
2023-05-09T12:10:10.867Z,28.18
2023-05-09T12:11:11.059Z,28.24
2023-05-09T12:12:11.181Z,28.20
2023-05-09T12:13:11.003Z,28.25
2023-05-09T12:14:11.000Z,28.32
2023-05-09T12:15:11.026Z,28.23
2023-05-09T12:16:11.149Z,28.20
2023-05-09T12:17:11.103Z,28.27
2023-05-09T12:18:11.439Z,28.21
2023-05-09T12:19:11.169Z,28.23
2023-05-09T12:20:11.293Z,28.27
2023-05-09T12:21:11.333Z,28.24
2023-05-09T12:23:11.279Z,28.25
2023-05-09T12:24:11.311Z,28.28
2023-05-09T12:25:11.661Z,28.18
2023-05-09T12:27:11.530Z,28.21
2023-05-09T12:28:11.447Z,28.21
2023-05-09T12:29:11.483Z,28.27
2023-05-09T12:30:11.513Z,28.35
2023-05-09T12:31:11.622Z,28.38
2023-05-09T12:32:11.898Z,28.28
2023-05-09T12:33:11.615Z,28.28
2023-05-09T12:34:11.639Z,28.30
2023-05-09T12:36:11.718Z,28.25
2023-05-09T12:37:11.754Z,28.32
2023-05-09T12:38:11.795Z,28.30
2023-05-09T12:39:12.180Z,28.28
2023-05-09T12:40:11.871Z,28.33
2023-05-09T12:41:22.481Z,28.42
2023-05-09T12:42:11.933Z,28.35
2023-05-09T12:43:12.112Z,28.32
2023-05-09T12:44:11.988Z,28.28
2023-05-09T12:45:12.110Z,28.38
2023-05-09T12:46:12.060Z,28.25
2023-05-09T12:47:12.087Z,28.18
2023-05-09T12:48:12.160Z,28.21
2023-05-09T12:49:12.241Z,28.25
2023-05-09T12:50:12.197Z,28.17
2023-05-09T12:51:12.209Z,28.24
2023-05-09T12:52:12.237Z,28.28
2023-05-09T12:53:12.335Z,28.24
2023-05-09T12:54:13.009Z,28.24
2023-05-09T12:55:12.759Z,28.25
2023-05-09T12:56:12.369Z,28.24
2023-05-09T12:57:12.399Z,28.25
2023-05-09T16:15:43.225Z,26.61
2023-05-09T16:16:43.093Z,26.64
2023-05-09T16:17:43.111Z,26.61
2023-05-09T16:18:43.158Z,26.56
2023-05-09T16:19:43.182Z,26.65
2023-05-09T16:20:43.211Z,26.57
2023-05-09T16:43:10.990Z,26.44
2023-05-09T16:44:10.564Z,26.46
2023-05-09T16:45:10.594Z,26.47
2023-05-09T16:46:10.682Z,26.35
2023-05-09T16:47:10.656Z,26.44
2023-05-09T16:48:10.755Z,26.41
2023-05-09T16:49:11.027Z,26.41
2023-05-09T16:50:10.953Z,26.38
2023-05-09T16:51:10.798Z,26.31
2023-05-09T16:52:10.811Z,26.31
2023-05-09T17:17:01.230Z,26.06
2023-05-09T17:18:00.962Z,26.20
2023-05-09T17:19:00.937Z,26.20
2023-05-09T17:20:00.983Z,26.20
2023-05-09T17:21:00.994Z,26.17
2023-05-09T17:22:01.030Z,26.16
2023-05-09T17:23:01.304Z,26.13
2023-05-09T17:24:01.101Z,26.08
2023-05-09T17:25:01.128Z,26.11
2023-05-09T17:26:01.160Z,26.01
2023-05-09T17:28:01.210Z,26.03
2023-05-09T17:29:01.238Z,26.06
2023-05-09T17:30:01.579Z,26.03
2023-05-09T17:31:01.307Z,26.04
2023-05-09T17:32:01.692Z,26.01
2023-05-09T17:33:01.540Z,26.01
2023-05-09T17:34:01.404Z,25.94
2023-05-09T17:46:39.916Z,25.81
2023-05-09T17:47:39.910Z,25.78
2023-05-09T17:48:40.045Z,25.89
2023-05-09T17:49:39.948Z,25.79